Time;durP1;ratioP1;P1;durP2;ratioP2;P2;SDS_P1;SDS_P2;PMS_P1;PMS_P2;Temp;Humidity;BMP_temperature;BMP_pressure;BME280_temperature;BME280_humidity;BME280_pressure;Samples;Min_cycle;Max_cycle;Signal;HPM_P1;HPM_P2
2022/08/20 00:01:35;;;;;;;15.77;6.88;;;27.60;75.80;;;;;;7648003;22;80461;-65
2022/08/20 00:04:35;;;;;;;13.40;7.07;;;27.60;76.00;;;;;;7647727;22;80151;-65
2022/08/20 00:07:36;;;;;;;14.07;7.68;;;27.60;75.80;;;;;;7647818;22;80449;-65
2022/08/20 00:10:36;;;;;;;13.40;7.00;;;27.50;76.00;;;;;;7646111;22;80274;-64
2022/08/20 00:13:37;;;;;;;19.50;7.38;;;27.50;76.10;;;;;;7647942;22;80238;-64
2022/08/20 00:16:37;;;;;;;16.88;7.00;;;27.60;76.00;;;;;;7647924;22;80512;-64
2022/08/20 00:19:38;;;;;;;16.30;7.70;;;27.60;75.70;;;;;;7647340;22;80431;-64
2022/08/20 00:22:38;;;;;;;14.73;6.85;;;27.70;75.80;;;;;;7647542;22;80277;-64
2022/08/20 00:25:39;;;;;;;17.52;7.93;;;27.70;75.50;;;;;;7647733;22;80379;-64
2022/08/20 00:28:40;;;;;;;13.20;7.00;;;27.60;75.70;;;;;;7647277;22;81187;-63
2022/08/20 00:31:40;;;;;;;14.23;7.07;;;27.40;77.10;;;;;;7647467;22;80328;-64
2022/08/20 00:34:41;;;;;;;10.98;7.53;;;27.50;76.70;;;;;;7647307;22;80438;-65
2022/08/20 00:37:41;;;;;;;14.88;6.95;;;27.60;76.30;;;;;;7646506;22;86031;-66
2022/08/20 00:40:42;;;;;;;13.77;8.05;;;27.60;76.00;;;;;;7646105;22;80587;-66
2022/08/20 00:43:43;;;;;;;15.77;7.57;;;27.60;75.80;;;;;;7647372;22;80590;-65
2022/08/20 00:46:43;;;;;;;27.73;8.63;;;27.70;75.70;;;;;;7646152;22;80327;-66
2022/08/20 00:49:44;;;;;;;13.60;7.57;;;27.60;75.80;;;;;;7647434;22;80670;-65
2022/08/20 00:52:44;;;;;;;15.02;7.35;;;27.60;75.90;;;;;;7647411;22;80249;-66
2022/08/20 00:55:45;;;;;;;12.18;6.82;;;27.70;75.70;;;;;;7646209;22;81210;-66
2022/08/20 00:58:45;;;;;;;12.23;7.68;;;27.70;75.50;;;;;;7646998;22;80503;-66
2022/08/20 01:01:46;;;;;;;14.15;7.22;;;27.70;75.50;;;;;;7648446;22;80337;-65
2022/08/20 01:04:55;;;;;;;13.23;8.30;;;27.70;75.80;;;;;;7649170;22;81882;-66
2022/08/20 01:07:56;;;;;;;14.40;7.80;;;27.70;75.50;;;;;;7649103;22;81061;-66
2022/08/20 01:17:33;;;;;;;12.63;7.63;;;27.70;75.60;;;;;;7649145;22;80386;-66
2022/08/20 01:20:34;;;;;;;13.38;6.82;;;27.70;75.70;;;;;;7649323;22;80852;-65
2022/08/20 01:23:34;;;;;;;12.43;7.72;;;27.70;75.80;;;;;;7648968;22;80424;-64
2022/08/20 01:26:35;;;;;;;21.20;7.68;;;27.70;75.90;;;;;;7649176;22;80537;-64
2022/08/20 01:29:35;;;;;;;16.60;8.32;;;27.50;76.30;;;;;;7648531;22;80653;-65
2022/08/20 01:32:36;;;;;;;14.57;7.45;;;27.40;76.80;;;;;;7648835;22;80486;-65
2022/08/20 01:35:36;;;;;;;18.30;9.20;;;27.40;77.10;;;;;;7648776;22;80523;-65
2022/08/20 01:38:37;;;;;;;19.40;8.32;;;27.40;76.90;;;;;;7648789;22;80735;-65
2022/08/20 01:41:37;;;;;;;14.10;8.23;;;27.40;76.90;;;;;;7648995;22;80760;-64
2022/08/20 01:44:38;;;;;;;16.08;8.40;;;27.50;76.70;;;;;;7647413;22;80556;-64
2022/08/20 01:47:38;;;;;;;21.20;7.85;;;27.50;76.70;;;;;;7647289;22;83054;-64
2022/08/20 01:50:39;;;;;;;12.18;8.10;;;27.50;76.60;;;;;;7648778;22;80306;-65
2022/08/20 01:53:40;;;;;;;15.15;8.73;;;27.40;76.90;;;;;;7648631;22;80579;-65
2022/08/20 01:56:40;;;;;;;18.20;8.68;;;27.30;77.10;;;;;;7648625;22;80879;-66
2022/08/20 01:59:41;;;;;;;15.30;8.27;;;27.30;77.50;;;;;;7648529;22;80320;-66
2022/08/20 02:02:41;;;;;;;16.90;9.30;;;27.30;77.20;;;;;;7648967;22;80303;-66
2022/08/20 02:05:42;;;;;;;13.55;7.72;;;27.20;77.30;;;;;;7646772;22;80787;-66
2022/08/20 02:08:42;;;;;;;13.45;8.02;;;27.20;77.60;;;;;;7648779;22;80307;-65
2022/08/20 02:11:44;;;;;;;15.85;7.50;;;27.30;77.30;;;;;;7647858;22;80511;-65
2022/08/20 02:14:45;;;;;;;12.27;7.63;;;27.40;76.90;;;;;;7647990;22;81615;-65
2022/08/20 02:17:47;;;;;;;17.50;8.10;;;27.40;76.80;;;;;;7647999;22;80478;-65
2022/08/20 02:20:47;;;;;;;19.00;8.30;;;27.40;76.40;;;;;;7648737;22;80305;-66
2022/08/20 02:23:48;;;;;;;11.52;7.18;;;27.40;76.50;;;;;;7648316;22;80753;-65
2022/08/20 02:26:48;;;;;;;16.80;7.78;;;27.30;76.60;;;;;;7647078;22;80474;-65
2022/08/20 02:29:49;;;;;;;15.20;8.52;;;27.30;76.80;;;;;;7648688;22;80765;-65
2022/08/20 02:32:49;;;;;;;12.43;7.85;;;27.30;76.60;;;;;;7648601;22;80436;-65
2022/08/20 02:35:50;;;;;;;10.27;7.28;;;27.30;76.50;;;;;;7646510;22;81494;-66
2022/08/20 02:38:50;;;;;;;16.90;7.57;;;27.40;76.60;;;;;;7648432;22;80373;-65
2022/08/20 02:41:51;;;;;;;20.80;7.95;;;27.20;76.60;;;;;;7648074;22;80343;-65
2022/08/20 02:44:53;;;;;;;15.48;7.15;;;26.90;78.10;;;;;;7648414;22;85893;-65
2022/08/20 02:47:55;;;;;;;12.82;7.57;;;26.90;77.90;;;;;;7648308;22;80392;-66
2022/08/20 02:50:56;;;;;;;12.18;7.10;;;27.00;77.70;;;;;;7648381;22;80746;-66
2022/08/20 02:53:56;;;;;;;16.35;7.68;;;27.00;77.50;;;;;;7648448;22;87488;-66
2022/08/20 02:56:57;;;;;;;12.18;6.60;;;26.70;78.70;;;;;;7648839;22;80531;-65
2022/08/20 02:59:57;;;;;;;16.63;7.05;;;26.70;78.50;;;;;;7648718;22;80204;-65
2022/08/20 03:02:58;;;;;;;12.75;7.10;;;26.90;77.80;;;;;;7648631;22;80365;-65
2022/08/20 03:05:58;;;;;;;28.15;8.05;;;27.00;77.40;;;;;;7648387;22;80698;-64
2022/08/20 03:08:59;;;;;;;18.27;7.93;;;27.00;77.30;;;;;;7648180;22;80122;-65
2022/08/20 03:12:01;;;;;;;15.63;7.57;;;27.00;77.30;;;;;;7648555;22;80815;-65
2022/08/20 03:15:02;;;;;;;11.38;6.82;;;27.00;76.90;;;;;;7648649;22;80001;-66
2022/08/20 03:18:02;;;;;;;11.98;7.18;;;27.10;76.90;;;;;;7648299;22;81289;-65
2022/08/20 03:21:03;;;;;;;13.25;7.07;;;27.10;76.60;;;;;;7646841;22;80516;-66
2022/08/20 03:24:03;;;;;;;11.07;7.03;;;27.10;76.50;;;;;;7647749;22;80561;-66
2022/08/20 03:27:04;;;;;;;13.35;8.02;;;26.80;77.70;;;;;;7648416;22;80286;-66
2022/08/20 03:30:04;;;;;;;15.07;7.28;;;26.60;78.10;;;;;;7648235;22;80535;-66
2022/08/20 03:33:05;;;;;;;15.02;7.47;;;26.70;77.80;;;;;;7648268;22;80952;-66
2022/08/20 03:36:06;;;;;;;19.85;9.02;;;26.40;79.00;;;;;;7647831;22;81779;-64
2022/08/20 03:39:10;;;;;;;22.65;8.95;;;26.50;78.80;;;;;;7648100;22;80351;-63
2022/08/20 03:42:10;;;;;;;19.52;8.82;;;26.60;78.40;;;;;;7647781;22;81675;-63
2022/08/20 03:45:11;;;;;;;16.10;8.68;;;26.70;77.80;;;;;;7648152;22;80716;-63
2022/08/20 03:48:11;;;;;;;15.85;8.45;;;26.80;77.30;;;;;;7647942;22;80961;-63
2022/08/20 03:51:12;;;;;;;13.85;9.05;;;26.90;76.80;;;;;;7646303;22;80140;-63
2022/08/20 03:54:12;;;;;;;15.68;9.15;;;27.00;76.70;;;;;;7648210;22;80414;-65
2022/08/20 03:57:13;;;;;;;13.45;8.65;;;27.10;76.30;;;;;;7648308;22;80323;-64
2022/08/20 04:00:13;;;;;;;18.77;8.07;;;27.10;75.90;;;;;;7647695;22;80169;-64
2022/08/20 04:03:15;;;;;;;15.40;8.68;;;27.20;75.80;;;;;;7645893;22;83077;-67
2022/08/20 04:06:17;;;;;;;18.45;8.70;;;27.20;75.60;;;;;;7647011;22;80402;-66
2022/08/20 04:09:17;;;;;;;15.75;9.38;;;27.30;75.30;;;;;;7645266;22;81549;-65
2022/08/20 04:12:18;;;;;;;15.32;8.75;;;27.30;75.00;;;;;;7647097;22;81338;-65
2022/08/20 04:15:18;;;;;;;18.40;9.60;;;27.30;74.90;;;;;;7646886;22;81290;-65
2022/08/20 04:18:22;;;;;;;20.08;9.77;;;27.30;74.80;;;;;;7647234;22;80337;-65
2022/08/20 04:21:23;;;;;;;17.58;8.23;;;27.40;75.00;;;;;;7645063;22;81433;-66
2022/08/20 04:24:24;;;;;;;13.85;8.52;;;27.40;74.90;;;;;;7646741;22;80426;-65
2022/08/20 04:27:25;;;;;;;15.05;9.00;;;27.40;75.00;;;;;;7646926;22;80931;-65
2022/08/20 04:30:25;;;;;;;22.05;9.23;;;27.40;75.10;;;;;;7646359;22;80413;-66
2022/08/20 04:33:26;;;;;;;16.75;8.40;;;27.40;75.00;;;;;;7647261;22;80730;-65
2022/08/20 04:36:27;;;;;;;14.75;8.68;;;27.50;74.90;;;;;;7647146;22;80080;-66
2022/08/20 04:39:27;;;;;;;15.88;8.00;;;27.50;74.90;;;;;;7648400;22;80233;-63
2022/08/20 04:42:28;;;;;;;14.57;7.88;;;27.50;74.50;;;;;;7648332;22;80649;-63
2022/08/20 04:45:28;;;;;;;11.27;7.20;;;27.50;74.40;;;;;;7647931;22;80418;-63
2022/08/20 04:48:28;;;;;;;13.15;7.30;;;27.60;74.40;;;;;;7648309;22;80773;-63
2022/08/20 04:51:29;;;;;;;12.02;7.50;;;27.60;74.00;;;;;;7647897;22;80444;-65
2022/08/20 04:54:30;;;;;;;16.92;7.97;;;27.60;73.90;;;;;;7648550;22;80908;-66
2022/08/20 04:57:30;;;;;;;11.23;6.95;;;27.50;74.00;;;;;;7648782;22;80318;-66
2022/08/20 05:00:31;;;;;;;21.17;7.85;;;27.50;74.10;;;;;;7648665;22;80471;-66
2022/08/20 05:03:31;;;;;;;15.57;7.80;;;27.60;74.00;;;;;;7648181;22;82798;-64
2022/08/20 05:06:32;;;;;;;17.50;7.63;;;27.60;74.00;;;;;;7648938;22;80399;-66
2022/08/20 05:09:32;;;;;;;16.40;8.43;;;27.70;73.90;;;;;;7648236;22;81404;-65
2022/08/20 05:12:33;;;;;;;15.45;7.30;;;27.60;73.80;;;;;;7648451;22;81941;-64
2022/08/20 05:15:33;;;;;;;12.93;7.40;;;27.70;73.80;;;;;;7646206;22;81623;-67
2022/08/20 05:18:34;;;;;;;15.38;8.02;;;27.70;73.70;;;;;;7648855;22;80264;-66
2022/08/20 05:21:34;;;;;;;15.10;8.13;;;27.80;73.90;;;;;;7647672;22;81621;-66
2022/08/20 05:24:35;;;;;;;17.80;9.02;;;27.70;73.90;;;;;;7648403;22;80484;-66
2022/08/20 05:27:35;;;;;;;18.23;7.80;;;27.80;73.90;;;;;;7648027;22;80394;-64
2022/08/20 05:30:36;;;;;;;16.75;8.05;;;27.80;73.90;;;;;;7646618;22;80270;-64
2022/08/20 05:33:36;;;;;;;13.02;7.85;;;27.80;74.10;;;;;;7647219;22;80579;-67
2022/08/20 05:36:38;;;;;;;12.93;7.85;;;27.80;74.40;;;;;;7644456;22;82976;-65
2022/08/20 05:39:38;;;;;;;21.15;8.00;;;27.80;74.70;;;;;;7648428;22;80792;-68
2022/08/20 05:42:39;;;;;;;14.52;7.45;;;27.80;74.70;;;;;;7648936;22;81541;-67
2022/08/20 05:45:40;;;;;;;16.83;6.95;;;27.90;74.80;;;;;;7648831;22;81120;-67
2022/08/20 05:48:40;;;;;;;24.48;8.75;;;27.90;75.00;;;;;;7648087;22;81334;-68
2022/08/20 05:51:41;;;;;;;11.52;6.85;;;27.90;75.20;;;;;;7648178;22;80799;-65
2022/08/20 05:54:41;;;;;;;15.25;8.85;;;27.90;75.00;;;;;;7648543;22;80298;-69
2022/08/20 05:57:42;;;;;;;14.05;7.47;;;27.90;75.00;;;;;;7648666;22;80612;-65
2022/08/20 06:00:42;;;;;;;14.30;8.32;;;28.00;74.20;;;;;;7648285;22;80274;-65
2022/08/20 06:07:02;;;;;;;13.10;7.65;;;28.00;74.60;;;;;;7648246;22;80386;-69
2022/08/20 06:10:02;;;;;;;14.25;8.82;;;28.00;74.60;;;;;;7649108;22;80834;-65
2022/08/20 06:13:03;;;;;;;42.88;9.43;;;28.00;74.80;;;;;;7648428;22;80668;-64
2022/08/20 06:16:03;;;;;;;18.15;7.93;;;28.00;75.10;;;;;;7646193;22;80263;-64
2022/08/20 06:19:04;;;;;;;12.48;7.13;;;28.10;75.10;;;;;;7647272;22;80176;-65
2022/08/20 06:22:04;;;;;;;12.70;7.43;;;28.20;75.20;;;;;;7647360;22;80502;-65
2022/08/20 06:25:05;;;;;;;20.45;8.00;;;28.20;74.90;;;;;;7647829;22;80360;-65
2022/08/20 06:28:05;;;;;;;13.18;7.20;;;28.20;74.20;;;;;;7646956;22;80506;-65
2022/08/20 06:31:06;;;;;;;17.48;7.97;;;28.20;74.20;;;;;;7645421;22;81642;-63
2022/08/20 06:34:07;;;;;;;15.90;7.63;;;28.20;74.80;;;;;;7648312;22;80222;-64
2022/08/20 06:37:07;;;;;;;11.60;7.53;;;28.20;75.00;;;;;;7647184;22;80635;-65
2022/08/20 06:40:08;;;;;;;11.43;7.53;;;28.20;74.60;;;;;;7647148;22;79951;-66
2022/08/20 06:43:08;;;;;;;23.35;7.32;;;28.20;73.70;;;;;;7648320;22;80386;-66
2022/08/20 06:46:09;;;;;;;15.02;7.60;;;28.20;73.90;;;;;;7647203;22;80932;-65
2022/08/20 06:49:09;;;;;;;12.05;7.20;;;28.20;73.40;;;;;;7645208;22;82992;-65
2022/08/20 06:52:10;;;;;;;15.57;7.78;;;28.20;73.10;;;;;;7647466;22;80321;-66
2022/08/20 06:55:11;;;;;;;13.25;7.05;;;28.20;72.90;;;;;;7648129;22;80736;-65
2022/08/20 06:58:11;;;;;;;11.73;7.20;;;28.20;72.50;;;;;;7646218;22;81381;-62
2022/08/20 07:01:12;;;;;;;9.68;6.95;;;28.20;72.50;;;;;;7648254;22;80849;-64
2022/08/20 07:04:14;;;;;;;14.32;7.60;;;28.20;72.50;;;;;;7646825;22;80225;-66
2022/08/20 07:07:15;;;;;;;12.43;7.22;;;28.20;72.70;;;;;;7648308;22;80919;-70
2022/08/20 07:10:15;;;;;;;10.85;6.95;;;28.20;72.50;;;;;;7648056;22;80192;-65
2022/08/20 07:13:16;;;;;;;10.85;7.00;;;28.20;71.80;;;;;;7647754;22;80492;-63
2022/08/20 07:16:16;;;;;;;14.60;7.07;;;28.20;72.10;;;;;;7647245;22;81494;-64
2022/08/20 07:19:17;;;;;;;10.68;7.10;;;28.20;72.00;;;;;;7648293;22;80145;-64
2022/08/20 07:22:19;;;;;;;15.27;8.30;;;28.20;72.30;;;;;;7648386;22;79965;-68
2022/08/20 07:25:19;;;;;;;14.43;6.88;;;28.20;72.20;;;;;;7647931;22;80166;-63
2022/08/20 07:28:20;;;;;;;18.52;7.18;;;28.20;71.90;;;;;;7648154;22;80777;-64
2022/08/20 07:34:40;;;;;;;18.20;8.30;;;28.20;71.50;;;;;;7648065;22;80976;-67
2022/08/20 07:37:41;;;;;;;12.57;7.38;;;28.20;71.30;;;;;;7647710;22;81358;-64
2022/08/20 07:40:41;;;;;;;16.88;7.03;;;28.30;71.30;;;;;;7647919;22;86733;-64
2022/08/20 07:43:44;;;;;;;13.23;7.78;;;28.30;71.30;;;;;;7647472;22;83598;-65
2022/08/20 07:46:44;;;;;;;22.30;8.13;;;28.30;71.00;;;;;;7647789;22;80310;-66
2022/08/20 07:49:45;;;;;;;13.90;7.78;;;28.30;70.90;;;;;;7647973;22;80529;-65
2022/08/20 07:52:45;;;;;;;14.43;7.10;;;28.30;70.70;;;;;;7648243;22;81344;-65
2022/08/20 07:55:46;;;;;;;10.90;7.40;;;28.30;70.70;;;;;;7648138;22;80245;-65
2022/08/20 07:58:48;;;;;;;13.68;7.57;;;28.30;70.70;;;;;;7648166;22;87524;-65
2022/08/20 08:01:48;;;;;;;10.23;7.35;;;28.30;70.70;;;;;;7647694;22;80313;-65
2022/08/20 08:04:49;;;;;;;19.63;7.95;;;28.30;70.30;;;;;;7648464;22;80296;-65
2022/08/20 08:07:49;;;;;;;13.10;7.50;;;28.30;70.40;;;;;;7648271;22;80641;-65
2022/08/20 08:10:50;;;;;;;13.75;7.47;;;28.30;70.40;;;;;;7648046;22;81377;-65
2022/08/20 08:14:01;;;;;;;15.48;7.85;;;28.30;70.10;;;;;;7649487;22;80548;-65
2022/08/20 08:17:01;;;;;;;16.10;8.20;;;28.30;70.00;;;;;;7649282;22;81479;-64
2022/08/20 08:20:02;;;;;;;12.43;7.65;;;28.30;69.90;;;;;;7647775;22;81366;-64
2022/08/20 08:23:02;;;;;;;16.30;8.23;;;28.40;69.80;;;;;;7647542;22;81387;-65
2022/08/20 08:26:03;;;;;;;13.68;7.47;;;28.40;69.80;;;;;;7649241;22;80453;-65
2022/08/20 08:29:06;;;;;;;12.85;8.02;;;28.40;69.90;;;;;;7649624;22;80594;-65
2022/08/20 08:32:06;;;;;;;17.40;7.78;;;28.40;70.00;;;;;;7646991;22;81809;-66
2022/08/20 08:35:07;;;;;;;9.75;7.00;;;28.40;69.80;;;;;;7649272;22;80287;-66
2022/08/20 08:38:08;;;;;;;13.70;8.00;;;28.50;69.90;;;;;;7649677;22;80508;-65
2022/08/20 08:41:11;;;;;;;13.68;8.10;;;28.40;70.20;;;;;;7649424;22;80349;-65
2022/08/20 08:44:11;;;;;;;16.35;7.03;;;28.50;69.90;;;;;;7649459;22;80340;-64
2022/08/20 08:47:17;;;;;;;11.45;8.20;;;28.50;69.90;;;;;;7649157;22;80716;-64
2022/08/20 08:50:20;;;;;;;14.27;8.80;;;28.50;69.60;;;;;;7649134;22;80294;-65
2022/08/20 08:53:20;;;;;;;16.83;7.75;;;28.50;69.50;;;;;;7649196;22;80726;-64
2022/08/20 08:56:21;;;;;;;16.70;8.70;;;28.50;69.30;;;;;;7648981;22;80380;-65
2022/08/20 08:59:22;;;;;;;15.30;8.32;;;28.50;69.20;;;;;;7649341;22;80457;-65
2022/08/20 09:02:24;;;;;;;13.10;8.38;;;28.50;69.20;;;;;;7649078;22;81705;-64
2022/08/20 09:05:25;;;;;;;13.13;8.57;;;28.50;69.50;;;;;;7648984;22;80140;-65
2022/08/20 09:08:26;;;;;;;18.27;8.52;;;28.60;69.90;;;;;;7649405;22;80415;-65
2022/08/20 09:11:26;;;;;;;15.60;7.97;;;28.60;69.30;;;;;;7649071;22;80414;-64
2022/08/20 09:14:27;;;;;;;17.35;9.05;;;28.60;69.20;;;;;;7649321;22;80604;-65
2022/08/20 09:17:27;;;;;;;19.10;8.77;;;28.60;69.00;;;;;;7649189;22;80381;-67
2022/08/20 09:20:28;;;;;;;15.30;8.75;;;28.60;69.10;;;;;;7649000;22;80519;-65
2022/08/20 09:23:28;;;;;;;16.88;8.38;;;28.60;69.00;;;;;;7648818;22;80202;-65
2022/08/20 09:26:29;;;;;;;18.00;9.07;;;28.60;69.30;;;;;;7647298;22;80358;-64
2022/08/20 09:29:31;;;;;;;25.65;8.93;;;28.60;69.50;;;;;;7649637;22;80300;-66
2022/08/20 09:32:32;;;;;;;17.83;7.68;;;28.60;69.80;;;;;;7650169;22;80493;-65
2022/08/20 09:35:33;;;;;;;16.08;8.77;;;28.60;70.20;;;;;;7649770;22;80390;-68
2022/08/20 09:38:33;;;;;;;17.05;8.88;;;28.70;70.40;;;;;;7649709;22;80283;-65
2022/08/20 09:41:34;;;;;;;21.05;8.45;;;28.60;70.60;;;;;;7647922;22;80533;-66
2022/08/20 09:44:34;;;;;;;31.55;8.95;;;28.60;70.40;;;;;;7648534;22;80445;-67
2022/08/20 09:47:35;;;;;;;15.15;8.02;;;28.70;70.20;;;;;;7648311;22;80794;-65
2022/08/20 09:50:36;;;;;;;18.67;8.65;;;28.70;69.90;;;;;;7649074;22;80421;-66
2022/08/20 09:53:36;;;;;;;15.68;8.23;;;28.70;69.90;;;;;;7646392;22;83454;-65
2022/08/20 09:56:37;;;;;;;12.85;7.78;;;28.70;70.20;;;;;;7648988;22;80601;-66
2022/08/20 09:59:37;;;;;;;16.67;8.48;;;28.70;70.00;;;;;;7649834;22;80091;-65
2022/08/20 10:02:38;;;;;;;21.52;8.38;;;28.80;70.00;;;;;;7649787;22;80796;-65
2022/08/20 10:05:38;;;;;;;16.42;7.68;;;28.80;70.20;;;;;;7649752;22;81511;-65
2022/08/20 10:08:39;;;;;;;12.68;7.88;;;28.80;69.70;;;;;;7650124;22;80622;-65
2022/08/20 10:11:39;;;;;;;22.92;8.52;;;28.80;69.50;;;;;;7648789;22;80390;-67
2022/08/20 10:14:40;;;;;;;14.30;8.27;;;28.80;69.60;;;;;;7649654;22;80492;-68
2022/08/20 10:17:40;;;;;;;15.50;8.07;;;28.90;69.80;;;;;;7649345;22;81228;-66
2022/08/20 10:20:40;;;;;;;16.05;7.60;;;28.90;69.60;;;;;;7649470;22;81281;-66
2022/08/20 10:23:41;;;;;;;13.77;7.88;;;29.00;69.60;;;;;;7649764;22;80285;-68
2022/08/20 10:26:41;;;;;;;19.45;7.45;;;29.10;69.20;;;;;;7649075;22;85949;-67
2022/08/20 10:29:42;;;;;;;11.82;7.47;;;29.10;68.40;;;;;;7649686;22;81117;-70
2022/08/20 10:32:42;;;;;;;13.90;8.55;;;29.20;68.80;;;;;;7648491;22;80326;-68
2022/08/20 10:35:43;;;;;;;10.38;7.45;;;29.20;67.90;;;;;;7648514;22;80347;-67
2022/08/20 10:38:43;;;;;;;13.32;7.70;;;29.10;67.50;;;;;;7646579;22;81487;-68
2022/08/20 10:41:44;;;;;;;12.38;7.25;;;29.00;66.30;;;;;;7649138;22;80207;-66
2022/08/20 10:44:44;;;;;;;15.40;7.80;;;29.00;67.10;;;;;;7649540;22;80318;-65
2022/08/20 10:47:45;;;;;;;15.45;8.48;;;29.10;67.30;;;;;;7649210;22;80351;-65
2022/08/20 10:50:45;;;;;;;13.23;7.57;;;29.20;66.50;;;;;;7649126;22;80818;-65
2022/08/20 10:53:46;;;;;;;12.07;7.28;;;29.20;67.00;;;;;;7648747;22;80433;-66
2022/08/20 10:56:47;;;;;;;12.35;7.68;;;29.30;66.90;;;;;;7649532;22;80243;-63
2022/08/20 10:59:47;;;;;;;14.30;7.95;;;29.30;67.30;;;;;;7649750;22;80577;-66
2022/08/20 11:02:48;;;;;;;24.20;9.38;;;29.30;67.60;;;;;;7649511;22;80132;-66
2022/08/20 11:05:48;;;;;;;19.75;8.93;;;29.30;68.00;;;;;;7649313;22;81003;-64
2022/08/20 11:08:49;;;;;;;19.17;9.38;;;29.20;67.70;;;;;;7648755;22;80482;-65
2022/08/20 11:11:49;;;;;;;16.52;9.45;;;29.20;67.70;;;;;;7649328;22;80593;-63
2022/08/20 11:14:50;;;;;;;23.60;8.98;;;29.20;67.20;;;;;;7650094;22;80437;-67
2022/08/20 11:17:50;;;;;;;18.15;8.88;;;29.20;67.20;;;;;;7649437;22;80504;-66
2022/08/20 11:20:51;;;;;;;17.92;9.02;;;29.30;67.30;;;;;;7649224;22;80441;-62
2022/08/20 11:23:51;;;;;;;24.85;9.48;;;29.30;67.40;;;;;;7649063;22;82344;-63
2022/08/20 11:26:52;;;;;;;17.10;8.75;;;29.30;67.60;;;;;;7649864;22;80484;-65
2022/08/20 11:29:52;;;;;;;15.60;8.43;;;29.40;67.30;;;;;;7649748;22;80509;-63
2022/08/20 11:32:53;;;;;;;11.80;7.47;;;29.40;67.30;;;;;;7648853;22;80240;-63
2022/08/20 11:35:53;;;;;;;15.32;7.95;;;29.30;67.30;;;;;;7648275;22;80325;-65
2022/08/20 11:38:54;;;;;;;14.18;7.43;;;29.30;66.60;;;;;;7646373;22;80483;-65
2022/08/20 11:41:55;;;;;;;14.27;8.00;;;29.30;66.70;;;;;;7648728;22;81693;-63
2022/08/20 11:44:55;;;;;;;14.63;7.32;;;29.20;65.90;;;;;;7649319;22;80519;-65
2022/08/20 11:47:56;;;;;;;11.77;7.45;;;29.20;66.60;;;;;;7647098;22;81437;-66
2022/08/20 11:50:56;;;;;;;16.17;8.23;;;29.20;66.60;;;;;;7648017;22;80292;-66
2022/08/20 11:53:57;;;;;;;14.23;8.48;;;29.20;66.90;;;;;;7647888;22;84122;-68
2022/08/20 11:56:57;;;;;;;9.40;6.93;;;29.20;65.90;;;;;;7648961;22;80889;-66
2022/08/20 11:59:57;;;;;;;10.20;7.05;;;29.10;65.80;;;;;;7648751;22;80379;-65
2022/08/20 12:02:58;;;;;;;9.48;6.88;;;29.10;65.40;;;;;;7648892;22;80355;-66
2022/08/20 12:05:58;;;;;;;13.18;7.63;;;29.10;65.50;;;;;;7648262;22;81357;-66
2022/08/20 12:08:59;;;;;;;11.07;7.55;;;29.00;65.00;;;;;;7648351;22;80445;-68
2022/08/20 12:11:59;;;;;;;9.27;6.63;;;29.00;65.30;;;;;;7646803;22;80075;-67
2022/08/20 12:15:00;;;;;;;12.40;7.43;;;29.00;64.90;;;;;;7647914;22;80935;-64
2022/08/20 12:18:00;;;;;;;13.65;7.82;;;29.00;65.20;;;;;;7645339;22;81523;-65
2022/08/20 12:21:01;;;;;;;14.48;7.93;;;29.00;65.30;;;;;;7647946;22;80482;-68
2022/08/20 12:24:01;;;;;;;11.88;7.35;;;29.00;65.10;;;;;;7647736;22;80284;-67
2022/08/20 12:27:02;;;;;;;8.80;7.07;;;29.00;65.20;;;;;;7648356;22;81449;-66
2022/08/20 12:30:02;;;;;;;16.83;7.32;;;29.00;65.20;;;;;;7647633;22;81502;-68
2022/08/20 12:33:03;;;;;;;10.02;6.45;;;29.00;65.30;;;;;;7647176;22;80518;-66
2022/08/20 12:36:03;;;;;;;10.70;7.13;;;29.00;65.20;;;;;;7646213;22;81205;-65
2022/08/20 12:39:04;;;;;;;11.93;6.95;;;29.00;65.40;;;;;;7646904;22;80307;-65
2022/08/20 12:42:04;;;;;;;9.80;6.65;;;29.00;65.60;;;;;;7646021;22;80228;-68
2022/08/20 12:45:04;;;;;;;11.55;6.97;;;29.00;65.50;;;;;;7647787;22;80300;-67
2022/08/20 12:48:05;;;;;;;17.30;7.55;;;29.00;66.10;;;;;;7646709;22;80906;-68
2022/08/20 12:51:05;;;;;;;13.15;7.95;;;29.00;66.10;;;;;;7644766;22;80606;-69
2022/08/20 12:54:06;;;;;;;11.82;6.55;;;28.90;66.10;;;;;;7647591;22;80395;-66
2022/08/20 12:57:07;;;;;;;11.73;7.47;;;29.00;66.50;;;;;;7649345;22;80303;-67
2022/08/20 13:00:07;;;;;;;9.57;7.45;;;28.90;66.70;;;;;;7650332;22;80315;-66
2022/08/20 13:03:08;;;;;;;9.80;6.80;;;29.00;66.80;;;;;;7649679;22;80435;-66
2022/08/20 13:06:08;;;;;;;12.82;7.28;;;29.00;66.60;;;;;;7649623;22;80378;-68
2022/08/20 13:09:09;;;;;;;11.45;6.68;;;29.00;67.00;;;;;;7649403;22;80332;-70
2022/08/20 13:12:09;;;;;;;11.05;6.80;;;29.00;67.10;;;;;;7649799;22;80880;-65
2022/08/20 13:15:10;;;;;;;17.70;7.93;;;29.00;67.50;;;;;;7650017;22;80742;-70
2022/08/20 13:18:10;;;;;;;19.08;7.93;;;29.00;67.40;;;;;;7649589;22;81604;-66
2022/08/20 13:21:10;;;;;;;20.33;7.85;;;28.90;67.80;;;;;;7649719;22;80481;-68
2022/08/20 13:24:11;;;;;;;22.17;9.65;;;28.70;68.40;;;;;;7649812;22;80486;-66
2022/08/20 13:27:11;;;;;;;13.85;8.05;;;28.60;68.70;;;;;;7649830;22;81236;-67
2022/08/20 13:30:12;;;;;;;22.40;8.32;;;28.40;68.30;;;;;;7648173;22;81548;-69
2022/08/20 13:33:12;;;;;;;18.35;8.68;;;28.20;69.10;;;;;;7649482;22;80301;-72
2022/08/20 13:36:13;;;;;;;15.77;6.10;;;28.10;70.10;;;;;;7649524;22;80308;-67
2022/08/20 13:39:13;;;;;;;21.20;5.00;;;27.90;67.30;;;;;;7649814;22;80334;-67
2022/08/20 13:42:14;;;;;;;10.90;3.03;;;27.30;64.40;;;;;;7649605;22;80531;-68
2022/08/20 13:45:14;;;;;;;22.73;2.95;;;26.70;61.90;;;;;;7648365;22;80283;-68
2022/08/20 13:48:15;;;;;;;7.75;2.30;;;26.50;62.00;;;;;;7649640;22;80571;-67
2022/08/20 13:51:15;;;;;;;9.88;2.47;;;26.70;60.90;;;;;;7649469;22;80359;-67
2022/08/20 13:54:16;;;;;;;6.07;2.08;;;26.70;61.20;;;;;;7647924;22;80789;-65
2022/08/20 13:57:16;;;;;;;4.22;1.27;;;26.60;61.10;;;;;;7648600;22;80286;-66
2022/08/20 14:00:17;;;;;;;3.10;1.55;;;26.70;60.40;;;;;;7649910;22;80624;-66
2022/08/20 14:03:17;;;;;;;5.32;2.08;;;26.80;60.60;;;;;;7649926;22;80301;-66
2022/08/20 14:06:18;;;;;;;4.82;2.83;;;27.00;60.90;;;;;;7649727;22;80280;-66
2022/08/20 14:09:18;;;;;;;4.40;2.22;;;27.10;61.40;;;;;;7649747;22;80271;-66
2022/08/20 14:12:19;;;;;;;4.65;2.20;;;27.00;62.10;;;;;;7649680;22;80426;-65
2022/08/20 14:15:19;;;;;;;2.92;2.10;;;26.70;64.10;;;;;;7649990;22;80936;-66
2022/08/20 14:18:20;;;;;;;2.63;1.90;;;26.80;64.90;;;;;;7649363;22;80354;-70
2022/08/20 14:21:20;;;;;;;6.30;3.00;;;27.10;65.00;;;;;;7649573;22;80625;-66
2022/08/20 14:24:21;;;;;;;5.68;2.38;;;27.30;64.60;;;;;;7649106;22;80342;-65
2022/08/20 14:27:21;;;;;;;6.35;2.70;;;27.50;64.90;;;;;;7649612;22;80287;-65
2022/08/20 14:30:22;;;;;;;6.40;2.85;;;27.60;65.00;;;;;;7649814;22;80361;-68
2022/08/20 14:33:22;;;;;;;5.70;3.42;;;27.60;66.00;;;;;;7649949;22;80791;-64
2022/08/20 14:36:23;;;;;;;11.52;3.72;;;27.70;65.60;;;;;;7649749;22;80445;-63
2022/08/20 14:39:24;;;;;;;9.95;3.92;;;27.80;65.40;;;;;;7650028;22;79936;-67
2022/08/20 14:42:25;;;;;;;17.60;5.72;;;27.90;65.50;;;;;;7648974;22;80305;-66
2022/08/20 14:45:26;;;;;;;10.98;5.32;;;27.90;65.50;;;;;;7648243;22;80078;-65
2022/08/20 14:48:27;;;;;;;11.43;4.35;;;27.90;65.10;;;;;;7649045;22;80675;-65
2022/08/20 14:51:27;;;;;;;10.13;4.00;;;27.90;65.00;;;;;;7649382;22;80388;-66
2022/08/20 14:54:28;;;;;;;16.10;4.10;;;28.00;65.00;;;;;;7650059;22;80494;-67
2022/08/20 14:57:28;;;;;;;8.20;4.22;;;28.00;64.80;;;;;;7649925;22;80306;-67
2022/08/20 15:00:29;;;;;;;8.55;3.92;;;27.90;65.00;;;;;;7648697;22;80203;-67
2022/08/20 15:03:29;;;;;;;9.23;3.97;;;27.90;65.10;;;;;;7649941;22;80791;-67
2022/08/20 15:06:30;;;;;;;14.93;4.00;;;27.90;65.30;;;;;;7649756;22;80838;-67
2022/08/20 15:09:31;;;;;;;3.65;3.10;;;27.90;65.50;;;;;;7649760;22;80475;-66
2022/08/20 15:12:34;;;;;;;8.07;4.10;;;27.90;65.60;;;;;;7649708;22;80163;-66
2022/08/20 15:15:34;;;;;;;5.97;3.72;;;27.90;65.80;;;;;;7649370;22;80291;-66
2022/08/20 15:18:34;;;;;;;5.55;3.80;;;27.90;65.80;;;;;;7649281;22;80340;-67
2022/08/20 15:21:35;;;;;;;9.35;3.22;;;27.90;66.00;;;;;;7648890;22;80292;-69
2022/08/20 15:24:35;;;;;;;12.07;4.38;;;28.00;66.40;;;;;;7649360;22;80800;-68
2022/08/20 15:27:36;;;;;;;14.25;3.90;;;28.00;66.30;;;;;;7649413;22;80332;-70
2022/08/20 15:30:37;;;;;;;9.68;3.60;;;27.90;67.40;;;;;;7649092;22;80493;-71
2022/08/20 15:33:37;;;;;;;18.80;6.43;;;27.80;67.70;;;;;;7647713;22;80393;-68
2022/08/20 15:36:38;;;;;;;14.52;4.13;;;27.80;67.60;;;;;;7649485;22;80375;-70
2022/08/20 15:39:38;;;;;;;5.15;3.70;;;27.70;67.80;;;;;;7649510;22;80582;-69
2022/08/20 15:42:39;;;;;;;8.48;3.33;;;27.60;68.00;;;;;;7649230;22;80525;-67